Terminal Aerodrome Forecast
Issued by NWS

Home | Current Version | Previous Version | Text Only | Print | Product List | Glossary On
Versions: 1 2 3 4 5 6 7 8 9 10 11 12 13 14 15 16 17 18
887
FTAK31 PAJN 201131
TAFAPG
TAF
PAPG 201131Z 2012/2112 00000KT P6SM VCSH BKN045 OVC080
      TEMPO 2012/2016 5SM -SHSN BR FEW005 SCT014 OVC035
     FM201800 22005KT P6SM SCT050
     FM210300 05005KT P6SM SKC
      AMD LTD TO CLD VIS AND WIND 2012/2015=

USA.gov is the U.S. government's official web portal to all federal, state and local government web resources and services.